sensor_id;sensor_type;location;lat;lon;timestamp;P1;durP1;ratioP1;P2;durP2;ratioP2
40058;SDS011;25763;49.972;8.568;2023-11-19T00:02:14;125.60;;;119.38;;
40058;SDS011;25763;49.972;8.568;2023-11-19T00:04:39;131.43;;;124.75;;
40058;SDS011;25763;49.972;8.568;2023-11-19T00:07:05;138.88;;;131.98;;
40058;SDS011;25763;49.972;8.568;2023-11-19T00:09:35;131.57;;;125.00;;
40058;SDS011;25763;49.972;8.568;2023-11-19T00:12:02;138.73;;;131.77;;
40058;SDS011;25763;49.972;8.568;2023-11-19T00:14:29;133.77;;;126.95;;
40058;SDS011;25763;49.972;8.568;2023-11-19T00:16:55;132.52;;;125.90;;
40058;SDS011;25763;49.972;8.568;2023-11-19T00:19:20;135.13;;;128.43;;
40058;SDS011;25763;49.972;8.568;2023-11-19T00:21:46;135.02;;;128.32;;
40058;SDS011;25763;49.972;8.568;2023-11-19T00:24:11;138.77;;;131.82;;
40058;SDS011;25763;49.972;8.568;2023-11-19T00:26:37;142.32;;;135.23;;
40058;SDS011;25763;49.972;8.568;2023-11-19T00:29:03;138.48;;;131.52;;
40058;SDS011;25763;49.972;8.568;2023-11-19T00:31:29;143.90;;;136.75;;
40058;SDS011;25763;49.972;8.568;2023-11-19T00:33:54;131.40;;;124.80;;
40058;SDS011;25763;49.972;8.568;2023-11-19T00:36:20;128.30;;;121.93;;
40058;SDS011;25763;49.972;8.568;2023-11-19T00:38:45;134.30;;;127.40;;
40058;SDS011;25763;49.972;8.568;2023-11-19T00:41:11;133.15;;;126.53;;
40058;SDS011;25763;49.972;8.568;2023-11-19T00:43:37;127.20;;;120.88;;
40058;SDS011;25763;49.972;8.568;2023-11-19T00:46:02;129.57;;;123.05;;
40058;SDS011;25763;49.972;8.568;2023-11-19T00:48:28;133.18;;;126.50;;
40058;SDS011;25763;49.972;8.568;2023-11-19T00:50:53;135.35;;;128.60;;
40058;SDS011;25763;49.972;8.568;2023-11-19T00:53:19;133.20;;;126.50;;
40058;SDS011;25763;49.972;8.568;2023-11-19T00:55:44;138.77;;;131.80;;
40058;SDS011;25763;49.972;8.568;2023-11-19T00:58:10;133.60;;;126.90;;
40058;SDS011;25763;49.972;8.568;2023-11-19T01:00:35;133.82;;;127.18;;
40058;SDS011;25763;49.972;8.568;2023-11-19T01:03:01;132.50;;;125.90;;
40058;SDS011;25763;49.972;8.568;2023-11-19T01:05:26;133.75;;;127.10;;
40058;SDS011;25763;49.972;8.568;2023-11-19T01:07:53;141.02;;;134.02;;
40058;SDS011;25763;49.972;8.568;2023-11-19T01:10:19;142.35;;;135.23;;
40058;SDS011;25763;49.972;8.568;2023-11-19T01:12:45;137.20;;;130.40;;
40058;SDS011;25763;49.972;8.568;2023-11-19T01:15:11;138.23;;;131.30;;
40058;SDS011;25763;49.972;8.568;2023-11-19T01:17:38;140.57;;;133.45;;
40058;SDS011;25763;49.972;8.568;2023-11-19T01:20:04;143.50;;;136.38;;
40058;SDS011;25763;49.972;8.568;2023-11-19T01:22:32;132.18;;;125.55;;
40058;SDS011;25763;49.972;8.568;2023-11-19T01:24:58;142.73;;;135.63;;
40058;SDS011;25763;49.972;8.568;2023-11-19T01:27:23;150.68;;;143.10;;
40058;SDS011;25763;49.972;8.568;2023-11-19T01:29:49;150.23;;;142.75;;
40058;SDS011;25763;49.972;8.568;2023-11-19T01:32:15;139.50;;;132.35;;
40058;SDS011;25763;49.972;8.568;2023-11-19T01:34:40;146.90;;;139.50;;
40058;SDS011;25763;49.972;8.568;2023-11-19T01:37:06;159.48;;;151.55;;
40058;SDS011;25763;49.972;8.568;2023-11-19T01:39:31;159.25;;;151.35;;
40058;SDS011;25763;49.972;8.568;2023-11-19T01:41:57;161.73;;;153.73;;
40058;SDS011;25763;49.972;8.568;2023-11-19T01:44:22;157.02;;;149.07;;
40058;SDS011;25763;49.972;8.568;2023-11-19T01:46:48;165.23;;;156.98;;
40058;SDS011;25763;49.972;8.568;2023-11-19T01:49:17;156.52;;;148.65;;
40058;SDS011;25763;49.972;8.568;2023-11-19T01:51:43;168.45;;;159.85;;
40058;SDS011;25763;49.972;8.568;2023-11-19T01:54:09;160.93;;;152.85;;
40058;SDS011;25763;49.972;8.568;2023-11-19T01:56:35;164.43;;;156.27;;
40058;SDS011;25763;49.972;8.568;2023-11-19T01:59:05;163.40;;;155.32;;
40058;SDS011;25763;49.972;8.568;2023-11-19T02:01:32;158.43;;;150.43;;
40058;SDS011;25763;49.972;8.568;2023-11-19T02:03:59;162.25;;;154.18;;
40058;SDS011;25763;49.972;8.568;2023-11-19T02:06:26;168.32;;;160.02;;
40058;SDS011;25763;49.972;8.568;2023-11-19T02:08:53;164.60;;;156.50;;
40058;SDS011;25763;49.972;8.568;2023-11-19T02:11:18;157.90;;;150.07;;
40058;SDS011;25763;49.972;8.568;2023-11-19T02:13:44;165.55;;;157.30;;
40058;SDS011;25763;49.972;8.568;2023-11-19T02:16:09;167.05;;;158.75;;
40058;SDS011;25763;49.972;8.568;2023-11-19T02:18:36;166.05;;;157.77;;
40058;SDS011;25763;49.972;8.568;2023-11-19T02:21:02;172.73;;;164.23;;
40058;SDS011;25763;49.972;8.568;2023-11-19T02:23:27;162.75;;;154.60;;
40058;SDS011;25763;49.972;8.568;2023-11-19T02:28:34;178.20;;;169.27;;
40058;SDS011;25763;49.972;8.568;2023-11-19T02:31:01;195.40;;;185.73;;
40058;SDS011;25763;49.972;8.568;2023-11-19T02:33:26;198.75;;;188.95;;
40058;SDS011;25763;49.972;8.568;2023-11-19T02:35:52;200.38;;;190.52;;
40058;SDS011;25763;49.972;8.568;2023-11-19T02:38:17;191.02;;;181.52;;
40058;SDS011;25763;49.972;8.568;2023-11-19T02:40:42;190.35;;;180.95;;
40058;SDS011;25763;49.972;8.568;2023-11-19T02:43:08;187.48;;;178.25;;
40058;SDS011;25763;49.972;8.568;2023-11-19T02:45:33;179.38;;;170.50;;
40058;SDS011;25763;49.972;8.568;2023-11-19T02:47:59;178.75;;;169.68;;
40058;SDS011;25763;49.972;8.568;2023-11-19T02:50:26;177.05;;;168.27;;
40058;SDS011;25763;49.972;8.568;2023-11-19T02:52:53;175.82;;;167.15;;
40058;SDS011;25763;49.972;8.568;2023-11-19T02:55:21;166.43;;;158.18;;
40058;SDS011;25763;49.972;8.568;2023-11-19T02:57:49;162.35;;;154.30;;
40058;SDS011;25763;49.972;8.568;2023-11-19T03:00:15;162.98;;;154.93;;
40058;SDS011;25763;49.972;8.568;2023-11-19T03:02:42;158.57;;;150.70;;
40058;SDS011;25763;49.972;8.568;2023-11-19T03:05:14;156.75;;;148.98;;
40058;SDS011;25763;49.972;8.568;2023-11-19T03:07:40;155.80;;;148.02;;
40058;SDS011;25763;49.972;8.568;2023-11-19T03:10:08;159.60;;;151.68;;
40058;SDS011;25763;49.972;8.568;2023-11-19T03:12:34;163.50;;;155.43;;
40058;SDS011;25763;49.972;8.568;2023-11-19T03:14:59;164.68;;;156.50;;
40058;SDS011;25763;49.972;8.568;2023-11-19T03:17:24;156.25;;;148.48;;
40058;SDS011;25763;49.972;8.568;2023-11-19T03:19:50;155.20;;;147.45;;
40058;SDS011;25763;49.972;8.568;2023-11-19T03:22:15;155.43;;;147.57;;
40058;SDS011;25763;49.972;8.568;2023-11-19T03:24:41;160.15;;;152.15;;
40058;SDS011;25763;49.972;8.568;2023-11-19T03:27:06;167.57;;;159.30;;
40058;SDS011;25763;49.972;8.568;2023-11-19T03:29:31;151.30;;;143.80;;
40058;SDS011;25763;49.972;8.568;2023-11-19T03:31:57;157.50;;;149.70;;
40058;SDS011;25763;49.972;8.568;2023-11-19T03:34:22;157.98;;;150.18;;
40058;SDS011;25763;49.972;8.568;2023-11-19T03:36:47;154.55;;;146.75;;
40058;SDS011;25763;49.972;8.568;2023-11-19T03:39:14;160.63;;;152.68;;
40058;SDS011;25763;49.972;8.568;2023-11-19T03:41:39;155.50;;;147.80;;
40058;SDS011;25763;49.972;8.568;2023-11-19T03:44:04;160.57;;;152.57;;
40058;SDS011;25763;49.972;8.568;2023-11-19T03:46:30;153.27;;;145.65;;
40058;SDS011;25763;49.972;8.568;2023-11-19T03:48:56;159.85;;;151.68;;
40058;SDS011;25763;49.972;8.568;2023-11-19T03:51:21;164.10;;;155.95;;
40058;SDS011;25763;49.972;8.568;2023-11-19T03:53:47;154.57;;;146.93;;
40058;SDS011;25763;49.972;8.568;2023-11-19T03:56:12;152.73;;;145.15;;
40058;SDS011;25763;49.972;8.568;2023-11-19T03:58:38;160.20;;;152.25;;
40058;SDS011;25763;49.972;8.568;2023-11-19T04:01:10;166.35;;;158.10;;
40058;SDS011;25763;49.972;8.568;2023-11-19T04:03:38;168.57;;;160.27;;
40058;SDS011;25763;49.972;8.568;2023-11-19T04:06:03;164.38;;;156.25;;
40058;SDS011;25763;49.972;8.568;2023-11-19T04:08:29;189.07;;;179.70;;
40058;SDS011;25763;49.972;8.568;2023-11-19T04:10:54;194.80;;;185.18;;
40058;SDS011;25763;49.972;8.568;2023-11-19T04:13:19;196.02;;;186.40;;
40058;SDS011;25763;49.972;8.568;2023-11-19T04:15:45;172.02;;;163.55;;
40058;SDS011;25763;49.972;8.568;2023-11-19T04:18:10;166.45;;;158.18;;
40058;SDS011;25763;49.972;8.568;2023-11-19T04:20:35;161.65;;;153.60;;
40058;SDS011;25763;49.972;8.568;2023-11-19T04:23:01;158.35;;;150.50;;
40058;SDS011;25763;49.972;8.568;2023-11-19T04:25:27;160.38;;;152.40;;
40058;SDS011;25763;49.972;8.568;2023-11-19T04:27:52;143.80;;;136.65;;
40058;SDS011;25763;49.972;8.568;2023-11-19T04:30:18;147.73;;;140.43;;
40058;SDS011;25763;49.972;8.568;2023-11-19T04:32:43;158.07;;;150.23;;
40058;SDS011;25763;49.972;8.568;2023-11-19T04:35:09;155.13;;;147.45;;
40058;SDS011;25763;49.972;8.568;2023-11-19T04:37:34;155.80;;;147.60;;
40058;SDS011;25763;49.972;8.568;2023-11-19T04:40:00;146.93;;;139.60;;
40058;SDS011;25763;49.972;8.568;2023-11-19T04:42:26;153.55;;;145.88;;
40058;SDS011;25763;49.972;8.568;2023-11-19T04:44:51;140.77;;;133.77;;
40058;SDS011;25763;49.972;8.568;2023-11-19T04:47:16;156.40;;;148.65;;
40058;SDS011;25763;49.972;8.568;2023-11-19T04:49:42;139.32;;;132.38;;
40058;SDS011;25763;49.972;8.568;2023-11-19T04:52:10;146.07;;;138.77;;
40058;SDS011;25763;49.972;8.568;2023-11-19T04:54:45;146.95;;;138.07;;
40058;SDS011;25763;49.972;8.568;2023-11-19T04:57:11;140.52;;;133.45;;
40058;SDS011;25763;49.972;8.568;2023-11-19T04:59:37;140.70;;;133.70;;
40058;SDS011;25763;49.972;8.568;2023-11-19T05:02:03;149.15;;;141.75;;
40058;SDS011;25763;49.972;8.568;2023-11-19T05:04:29;155.50;;;147.73;;
40058;SDS011;25763;49.972;8.568;2023-11-19T05:06:54;148.02;;;140.70;;
40058;SDS011;25763;49.972;8.568;2023-11-19T05:09:20;137.85;;;130.98;;
40058;SDS011;25763;49.972;8.568;2023-11-19T05:11:45;139.88;;;132.93;;
40058;SDS011;25763;49.972;8.568;2023-11-19T05:14:10;141.23;;;134.15;;
40058;SDS011;25763;49.972;8.568;2023-11-19T05:16:39;141.15;;;134.13;;
40058;SDS011;25763;49.972;8.568;2023-11-19T05:19:04;128.23;;;121.88;;
40058;SDS011;25763;49.972;8.568;2023-11-19T05:21:30;133.45;;;126.82;;
40058;SDS011;25763;49.972;8.568;2023-11-19T05:23:55;137.15;;;130.35;;
40058;SDS011;25763;49.972;8.568;2023-11-19T05:26:22;127.25;;;120.95;;
40058;SDS011;25763;49.972;8.568;2023-11-19T05:28:48;123.88;;;117.75;;
40058;SDS011;25763;49.972;8.568;2023-11-19T05:31:15;132.50;;;125.95;;
40058;SDS011;25763;49.972;8.568;2023-11-19T05:33:41;123.20;;;117.10;;
40058;SDS011;25763;49.972;8.568;2023-11-19T05:36:07;122.53;;;116.47;;
40058;SDS011;25763;49.972;8.568;2023-11-19T05:38:36;131.40;;;124.85;;
40058;SDS011;25763;49.972;8.568;2023-11-19T05:41:02;119.78;;;113.85;;
40058;SDS011;25763;49.972;8.568;2023-11-19T05:43:27;127.03;;;120.75;;
40058;SDS011;25763;49.972;8.568;2023-11-19T05:45:53;127.50;;;121.20;;
40058;SDS011;25763;49.972;8.568;2023-11-19T05:48:18;120.40;;;114.40;;
40058;SDS011;25763;49.972;8.568;2023-11-19T05:50:43;121.85;;;115.78;;
40058;SDS011;25763;49.972;8.568;2023-11-19T05:53:09;120.78;;;114.78;;
40058;SDS011;25763;49.972;8.568;2023-11-19T05:55:38;117.25;;;111.43;;
40058;SDS011;25763;49.972;8.568;2023-11-19T05:58:11;120.70;;;114.75;;
40058;SDS011;25763;49.972;8.568;2023-11-19T06:00:37;112.57;;;107.03;;
40058;SDS011;25763;49.972;8.568;2023-11-19T06:03:04;118.97;;;112.97;;
40058;SDS011;25763;49.972;8.568;2023-11-19T06:05:29;115.72;;;110.00;;
40058;SDS011;25763;49.972;8.568;2023-11-19T06:07:54;110.38;;;104.93;;
40058;SDS011;25763;49.972;8.568;2023-11-19T06:10:20;116.88;;;111.10;;
40058;SDS011;25763;49.972;8.568;2023-11-19T06:12:46;113.63;;;108.03;;
40058;SDS011;25763;49.972;8.568;2023-11-19T06:15:12;118.22;;;112.38;;
40058;SDS011;25763;49.972;8.568;2023-11-19T06:17:38;126.18;;;119.93;;
40058;SDS011;25763;49.972;8.568;2023-11-19T06:20:04;130.70;;;124.25;;
40058;SDS011;25763;49.972;8.568;2023-11-19T06:22:30;115.40;;;109.70;;
40058;SDS011;25763;49.972;8.568;2023-11-19T06:24:56;118.20;;;112.38;;
40058;SDS011;25763;49.972;8.568;2023-11-19T06:27:21;116.47;;;110.72;;
40058;SDS011;25763;49.972;8.568;2023-11-19T06:29:47;124.85;;;118.68;;
40058;SDS011;25763;49.972;8.568;2023-11-19T06:32:12;126.20;;;119.93;;
40058;SDS011;25763;49.972;8.568;2023-11-19T06:34:38;124.70;;;118.53;;
40058;SDS011;25763;49.972;8.568;2023-11-19T06:37:03;117.70;;;111.88;;
40058;SDS011;25763;49.972;8.568;2023-11-19T06:39:29;121.47;;;115.45;;
40058;SDS011;25763;49.972;8.568;2023-11-19T06:41:54;123.20;;;117.07;;
40058;SDS011;25763;49.972;8.568;2023-11-19T06:44:20;131.20;;;124.72;;
40058;SDS011;25763;49.972;8.568;2023-11-19T06:46:45;122.57;;;116.53;;
40058;SDS011;25763;49.972;8.568;2023-11-19T06:49:11;117.53;;;111.75;;
40058;SDS011;25763;49.972;8.568;2023-11-19T06:51:41;117.90;;;112.05;;
40058;SDS011;25763;49.972;8.568;2023-11-19T06:54:06;114.75;;;109.05;;
40058;SDS011;25763;49.972;8.568;2023-11-19T06:56:32;112.60;;;107.05;;
40058;SDS011;25763;49.972;8.568;2023-11-19T06:58:57;127.13;;;120.85;;
40058;SDS011;25763;49.972;8.568;2023-11-19T07:01:23;123.90;;;117.75;;
40058;SDS011;25763;49.972;8.568;2023-11-19T07:03:48;124.10;;;117.85;;
40058;SDS011;25763;49.972;8.568;2023-11-19T07:06:14;126.93;;;120.68;;
40058;SDS011;25763;49.972;8.568;2023-11-19T07:08:43;140.63;;;133.68;;
40058;SDS011;25763;49.972;8.568;2023-11-19T07:11:12;139.40;;;132.48;;
40058;SDS011;25763;49.972;8.568;2023-11-19T07:13:39;109.82;;;104.40;;
40058;SDS011;25763;49.972;8.568;2023-11-19T07:16:06;110.60;;;105.13;;
40058;SDS011;25763;49.972;8.568;2023-11-19T07:18:35;112.82;;;107.25;;
40058;SDS011;25763;49.972;8.568;2023-11-19T07:21:00;103.47;;;98.30;;
40058;SDS011;25763;49.972;8.568;2023-11-19T07:23:25;109.72;;;104.28;;
40058;SDS011;25763;49.972;8.568;2023-11-19T07:25:51;112.93;;;107.35;;
40058;SDS011;25763;49.972;8.568;2023-11-19T07:28:18;269.90;;;256.58;;
40058;SDS011;25763;49.972;8.568;2023-11-19T07:30:44;339.70;;;322.52;;
40058;SDS011;25763;49.972;8.568;2023-11-19T07:33:09;248.50;;;236.23;;
40058;SDS011;25763;49.972;8.568;2023-11-19T07:35:34;134.80;;;128.13;;
40058;SDS011;25763;49.972;8.568;2023-11-19T07:38:00;104.22;;;99.05;;
40058;SDS011;25763;49.972;8.568;2023-11-19T07:40:25;64.45;;;61.13;;
40058;SDS011;25763;49.972;8.568;2023-11-19T07:42:51;65.85;;;62.55;;
40058;SDS011;25763;49.972;8.568;2023-11-19T07:45:16;61.83;;;58.72;;
40058;SDS011;25763;49.972;8.568;2023-11-19T07:47:42;56.40;;;53.53;;
40058;SDS011;25763;49.972;8.568;2023-11-19T07:50:10;51.95;;;49.33;;
40058;SDS011;25763;49.972;8.568;2023-11-19T07:52:36;51.72;;;49.10;;
40058;SDS011;25763;49.972;8.568;2023-11-19T07:55:02;51.67;;;49.08;;
40058;SDS011;25763;49.972;8.568;2023-11-19T07:57:28;50.55;;;48.00;;
40058;SDS011;25763;49.972;8.568;2023-11-19T07:59:56;58.95;;;55.95;;
40058;SDS011;25763;49.972;8.568;2023-11-19T08:02:21;62.05;;;58.95;;
40058;SDS011;25763;49.972;8.568;2023-11-19T08:04:48;79.55;;;75.60;;
40058;SDS011;25763;49.972;8.568;2023-11-19T08:07:16;106.82;;;101.55;;
40058;SDS011;25763;49.972;8.568;2023-11-19T08:09:42;125.55;;;119.35;;
40058;SDS011;25763;49.972;8.568;2023-11-19T08:12:08;138.98;;;132.07;;
40058;SDS011;25763;49.972;8.568;2023-11-19T08:14:34;160.02;;;151.60;;
40058;SDS011;25763;49.972;8.568;2023-11-19T08:17:00;150.02;;;142.55;;
40058;SDS011;25763;49.972;8.568;2023-11-19T08:19:25;142.60;;;135.50;;
40058;SDS011;25763;49.972;8.568;2023-11-19T08:21:51;126.00;;;119.80;;
40058;SDS011;25763;49.972;8.568;2023-11-19T08:24:16;112.50;;;106.95;;
40058;SDS011;25763;49.972;8.568;2023-11-19T08:26:42;98.30;;;93.45;;
40058;SDS011;25763;49.972;8.568;2023-11-19T08:29:07;82.45;;;78.35;;
40058;SDS011;25763;49.972;8.568;2023-11-19T08:31:32;81.35;;;77.28;;
40058;SDS011;25763;49.972;8.568;2023-11-19T08:33:58;74.13;;;70.43;;
40058;SDS011;25763;49.972;8.568;2023-11-19T08:36:23;66.38;;;63.08;;
40058;SDS011;25763;49.972;8.568;2023-11-19T08:38:48;60.92;;;57.83;;
40058;SDS011;25763;49.972;8.568;2023-11-19T08:41:14;62.67;;;59.53;;
40058;SDS011;25763;49.972;8.568;2023-11-19T08:43:39;61.20;;;58.10;;
40058;SDS011;25763;49.972;8.568;2023-11-19T08:46:10;58.58;;;55.65;;
40058;SDS011;25763;49.972;8.568;2023-11-19T08:48:36;61.95;;;58.85;;
40058;SDS011;25763;49.972;8.568;2023-11-19T08:51:01;61.35;;;58.25;;
40058;SDS011;25763;49.972;8.568;2023-11-19T08:53:26;72.15;;;68.45;;
40058;SDS011;25763;49.972;8.568;2023-11-19T08:55:52;74.38;;;70.18;;
40058;SDS011;25763;49.972;8.568;2023-11-19T08:58:17;73.03;;;69.38;;
40058;SDS011;25763;49.972;8.568;2023-11-19T09:00:43;76.85;;;73.03;;
40058;SDS011;25763;49.972;8.568;2023-11-19T09:03:08;82.50;;;78.30;;
40058;SDS011;25763;49.972;8.568;2023-11-19T09:05:34;88.60;;;84.20;;
40058;SDS011;25763;49.972;8.568;2023-11-19T09:07:59;88.72;;;84.32;;
40058;SDS011;25763;49.972;8.568;2023-11-19T09:10:25;92.93;;;88.32;;
40058;SDS011;25763;49.972;8.568;2023-11-19T09:12:52;91.95;;;87.43;;
40058;SDS011;25763;49.972;8.568;2023-11-19T09:15:17;102.00;;;96.97;;
40058;SDS011;25763;49.972;8.568;2023-11-19T09:17:42;95.78;;;91.03;;
40058;SDS011;25763;49.972;8.568;2023-11-19T09:20:08;97.70;;;92.88;;
40058;SDS011;25763;49.972;8.568;2023-11-19T09:22:37;100.28;;;95.30;;
40058;SDS011;25763;49.972;8.568;2023-11-19T09:25:02;107.13;;;101.75;;
40058;SDS011;25763;49.972;8.568;2023-11-19T09:27:28;116.30;;;110.50;;
40058;SDS011;25763;49.972;8.568;2023-11-19T09:29:54;154.73;;;147.07;;
40058;SDS011;25763;49.972;8.568;2023-11-19T09:32:22;162.10;;;153.95;;
40058;SDS011;25763;49.972;8.568;2023-11-19T09:34:48;184.23;;;175.13;;
40058;SDS011;25763;49.972;8.568;2023-11-19T09:37:13;188.05;;;178.75;;
40058;SDS011;25763;49.972;8.568;2023-11-19T09:39:40;205.80;;;195.70;;
40058;SDS011;25763;49.972;8.568;2023-11-19T09:42:08;195.02;;;185.32;;
40058;SDS011;25763;49.972;8.568;2023-11-19T09:44:37;207.82;;;197.55;;
40058;SDS011;25763;49.972;8.568;2023-11-19T09:47:04;207.43;;;197.15;;
40058;SDS011;25763;49.972;8.568;2023-11-19T09:49:30;208.13;;;197.48;;
40058;SDS011;25763;49.972;8.568;2023-11-19T09:51:56;189.00;;;179.50;;
40058;SDS011;25763;49.972;8.568;2023-11-19T09:54:21;154.43;;;146.73;;
40058;SDS011;25763;49.972;8.568;2023-11-19T09:56:47;162.57;;;154.48;;
40058;SDS011;25763;49.972;8.568;2023-11-19T09:59:13;156.73;;;148.80;;
40058;SDS011;25763;49.972;8.568;2023-11-19T10:01:38;104.32;;;99.15;;
40058;SDS011;25763;49.972;8.568;2023-11-19T10:04:04;76.32;;;72.45;;
40058;SDS011;25763;49.972;8.568;2023-11-19T10:06:31;65.82;;;62.53;;
40058;SDS011;25763;49.972;8.568;2023-11-19T10:08:56;60.10;;;57.10;;
40058;SDS011;25763;49.972;8.568;2023-11-19T10:11:22;60.05;;;57.05;;
40058;SDS011;25763;49.972;8.568;2023-11-19T10:13:47;54.03;;;51.30;;
40058;SDS011;25763;49.972;8.568;2023-11-19T10:16:13;46.10;;;43.75;;
40058;SDS011;25763;49.972;8.568;2023-11-19T10:18:45;47.08;;;44.67;;
40058;SDS011;25763;49.972;8.568;2023-11-19T10:21:12;47.10;;;44.47;;
40058;SDS011;25763;49.972;8.568;2023-11-19T10:23:51;42.03;;;39.80;;
40058;SDS011;25763;49.972;8.568;2023-11-19T10:26:19;44.40;;;42.13;;
40058;SDS011;25763;49.972;8.568;2023-11-19T10:28:45;43.20;;;41.00;;
40058;SDS011;25763;49.972;8.568;2023-11-19T10:31:12;40.90;;;38.45;;
40058;SDS011;25763;49.972;8.568;2023-11-19T10:33:38;48.42;;;45.92;;
40058;SDS011;25763;49.972;8.568;2023-11-19T10:36:04;50.20;;;47.67;;
40058;SDS011;25763;49.972;8.568;2023-11-19T10:38:29;54.60;;;51.70;;
40058;SDS011;25763;49.972;8.568;2023-11-19T10:40:55;56.08;;;53.28;;
40058;SDS011;25763;49.972;8.568;2023-11-19T10:43:21;48.28;;;45.80;;
40058;SDS011;25763;49.972;8.568;2023-11-19T10:45:48;49.33;;;46.75;;
40058;SDS011;25763;49.972;8.568;2023-11-19T10:48:13;51.83;;;49.22;;
40058;SDS011;25763;49.972;8.568;2023-11-19T10:50:43;44.67;;;42.42;;
40058;SDS011;25763;49.972;8.568;2023-11-19T10:53:10;41.58;;;39.47;;
40058;SDS011;25763;49.972;8.568;2023-11-19T10:55:40;44.90;;;42.60;;
40058;SDS011;25763;49.972;8.568;2023-11-19T10:58:07;41.80;;;39.50;;
40058;SDS011;25763;49.972;8.568;2023-11-19T11:00:38;42.50;;;40.30;;
40058;SDS011;25763;49.972;8.568;2023-11-19T11:03:17;45.80;;;43.50;;
40058;SDS011;25763;49.972;8.568;2023-11-19T11:05:46;40.75;;;38.67;;
40058;SDS011;25763;49.972;8.568;2023-11-19T11:08:12;45.80;;;43.40;;
40058;SDS011;25763;49.972;8.568;2023-11-19T11:13:11;47.25;;;44.40;;
40058;SDS011;25763;49.972;8.568;2023-11-19T11:15:38;55.70;;;51.55;;
40058;SDS011;25763;49.972;8.568;2023-11-19T11:18:04;45.38;;;43.03;;
40058;SDS011;25763;49.972;8.568;2023-11-19T11:20:33;50.75;;;47.92;;
40058;SDS011;25763;49.972;8.568;2023-11-19T11:28:28;53.58;;;50.85;;
40058;SDS011;25763;49.972;8.568;2023-11-19T11:37:35;46.70;;;43.78;;
40058;SDS011;25763;49.972;8.568;2023-11-19T11:40:04;55.03;;;52.13;;
40058;SDS011;25763;49.972;8.568;2023-11-19T11:42:38;51.80;;;49.15;;
40058;SDS011;25763;49.972;8.568;2023-11-19T11:45:04;55.22;;;52.22;;
40058;SDS011;25763;49.972;8.568;2023-11-19T11:50:12;52.78;;;50.08;;
40058;SDS011;25763;49.972;8.568;2023-11-19T11:55:27;49.85;;;47.13;;
40058;SDS011;25763;49.972;8.568;2023-11-19T11:57:56;51.10;;;48.50;;
40058;SDS011;25763;49.972;8.568;2023-11-19T12:00:23;53.25;;;50.55;;
40058;SDS011;25763;49.972;8.568;2023-11-19T12:02:59;44.95;;;42.67;;
40058;SDS011;25763;49.972;8.568;2023-11-19T12:05:26;45.58;;;43.28;;
40058;SDS011;25763;49.972;8.568;2023-11-19T12:08:02;45.00;;;42.40;;
40058;SDS011;25763;49.972;8.568;2023-11-19T12:10:45;44.72;;;42.38;;
40058;SDS011;25763;49.972;8.568;2023-11-19T12:13:12;41.58;;;39.28;;
40058;SDS011;25763;49.972;8.568;2023-11-19T12:18:30;38.03;;;36.03;;
40058;SDS011;25763;49.972;8.568;2023-11-19T12:20:57;34.65;;;32.85;;
40058;SDS011;25763;49.972;8.568;2023-11-19T12:23:30;32.70;;;30.83;;
40058;SDS011;25763;49.972;8.568;2023-11-19T12:25:56;35.55;;;33.15;;
40058;SDS011;25763;49.972;8.568;2023-11-19T12:28:24;31.73;;;30.13;;
40058;SDS011;25763;49.972;8.568;2023-11-19T12:30:51;31.90;;;30.08;;
40058;SDS011;25763;49.972;8.568;2023-11-19T12:33:18;33.75;;;32.05;;
40058;SDS011;25763;49.972;8.568;2023-11-19T12:35:47;33.75;;;31.52;;
40058;SDS011;25763;49.972;8.568;2023-11-19T12:38:23;36.92;;;35.03;;
40058;SDS011;25763;49.972;8.568;2023-11-19T12:41:02;35.47;;;33.65;;
40058;SDS011;25763;49.972;8.568;2023-11-19T12:43:31;39.42;;;37.35;;
40058;SDS011;25763;49.972;8.568;2023-11-19T12:45:59;34.45;;;32.65;;
40058;SDS011;25763;49.972;8.568;2023-11-19T12:48:24;32.80;;;31.10;;
40058;SDS011;25763;49.972;8.568;2023-11-19T12:50:50;31.08;;;29.38;;
40058;SDS011;25763;49.972;8.568;2023-11-19T12:53:16;34.17;;;32.38;;
40058;SDS011;25763;49.972;8.568;2023-11-19T12:55:42;35.00;;;33.13;;
40058;SDS011;25763;49.972;8.568;2023-11-19T12:58:07;32.70;;;30.95;;
40058;SDS011;25763;49.972;8.568;2023-11-19T13:00:32;40.40;;;38.30;;
40058;SDS011;25763;49.972;8.568;2023-11-19T13:02:57;38.10;;;36.17;;
40058;SDS011;25763;49.972;8.568;2023-11-19T13:07:49;37.47;;;35.58;;
40058;SDS011;25763;49.972;8.568;2023-11-19T13:10:15;40.40;;;38.30;;
40058;SDS011;25763;49.972;8.568;2023-11-19T13:12:40;36.42;;;34.55;;
40058;SDS011;25763;49.972;8.568;2023-11-19T13:15:06;51.75;;;49.15;;
40058;SDS011;25763;49.972;8.568;2023-11-19T13:17:31;49.80;;;46.40;;
40058;SDS011;25763;49.972;8.568;2023-11-19T13:19:57;55.58;;;52.50;;
40058;SDS011;25763;49.972;8.568;2023-11-19T13:22:22;52.72;;;50.03;;
40058;SDS011;25763;49.972;8.568;2023-11-19T13:24:48;51.92;;;49.30;;
40058;SDS011;25763;49.972;8.568;2023-11-19T13:27:13;51.55;;;48.65;;
40058;SDS011;25763;49.972;8.568;2023-11-19T13:29:39;49.75;;;47.25;;
40058;SDS011;25763;49.972;8.568;2023-11-19T13:32:05;47.75;;;45.35;;
40058;SDS011;25763;49.972;8.568;2023-11-19T13:34:30;49.75;;;47.25;;
40058;SDS011;25763;49.972;8.568;2023-11-19T13:36:56;49.92;;;47.42;;
40058;SDS011;25763;49.972;8.568;2023-11-19T13:39:21;53.47;;;50.78;;
40058;SDS011;25763;49.972;8.568;2023-11-19T13:41:48;45.90;;;43.55;;
40058;SDS011;25763;49.972;8.568;2023-11-19T13:44:15;49.88;;;47.28;;
40058;SDS011;25763;49.972;8.568;2023-11-19T13:46:44;49.25;;;46.45;;
40058;SDS011;25763;49.972;8.568;2023-11-19T13:49:10;45.40;;;43.00;;
40058;SDS011;25763;49.972;8.568;2023-11-19T13:51:35;49.25;;;46.75;;
40058;SDS011;25763;49.972;8.568;2023-11-19T13:54:01;53.58;;;50.78;;
40058;SDS011;25763;49.972;8.568;2023-11-19T13:56:26;48.33;;;45.90;;
40058;SDS011;25763;49.972;8.568;2023-11-19T13:58:52;47.72;;;45.30;;
40058;SDS011;25763;49.972;8.568;2023-11-19T14:01:18;45.58;;;43.20;;
40058;SDS011;25763;49.972;8.568;2023-11-19T14:03:44;44.80;;;41.97;;
40058;SDS011;25763;49.972;8.568;2023-11-19T14:06:09;38.88;;;36.88;;
40058;SDS011;25763;49.972;8.568;2023-11-19T14:08:34;38.65;;;36.55;;
40058;SDS011;25763;49.972;8.568;2023-11-19T14:11:00;44.38;;;42.13;;
40058;SDS011;25763;49.972;8.568;2023-11-19T14:13:26;41.53;;;39.42;;
40058;SDS011;25763;49.972;8.568;2023-11-19T14:15:51;41.55;;;39.25;;
40058;SDS011;25763;49.972;8.568;2023-11-19T14:18:17;38.53;;;36.40;;
40058;SDS011;25763;49.972;8.568;2023-11-19T14:20:43;33.92;;;32.20;;
40058;SDS011;25763;49.972;8.568;2023-11-19T14:23:09;33.33;;;31.00;;
40058;SDS011;25763;49.972;8.568;2023-11-19T14:25:34;33.78;;;32.03;;
40058;SDS011;25763;49.972;8.568;2023-11-19T14:28:00;34.47;;;32.67;;
40058;SDS011;25763;49.972;8.568;2023-11-19T14:30:25;35.13;;;33.33;;